Alessandro F — IBVQ — position and weather

sailwx.info

Track history (hours):
 
Tides and Currents Weather Stations Pressure Air Temp Water Temp Dewpoint Dewpoint Depression Visibility Wind Speed Wind Dir Waves Ship Positions

Alessandro F

Last reported at 2015-Mar-26 07:33 UTC. Time now 2015-Mar-29 06:11 UTC.
Position N 40°45' E 028°57'.

Length 100 m; draft 5.3 m.

Type: Tanker. MMSI: 247046400.

Date/timePositionNaut miles runAvg speedWind from/ knotsBaromVisibWave heightAir tempDewpointWater temp
2015-Mar-26 07:33N 40°45' E 028°57'1313.6
2015-Mar-26 06:33N 40°45' E 029°15'10 0.3
2015-Mar-24 23:29N 40°44' E 029°28'1112.4
2015-Mar-24 22:34N 40°44' E 029°13'1513.7
2015-Mar-24 21:29N 40°44' E 028°53'29711.7
2015-Mar-23 20:14N 37°36' E 023°57'1013.8
2015-Mar-23 19:28N 37°39' E 023°45'1313.9
2015-Mar-23 18:33N 37°50' E 023°37'8 0.7
2015-Mar-23 07:33N 37°57' E 023°33'1010.3
2015-Mar-23 06:33N 37°49' E 023°40'  
Track history (hours):
 
Tides and Currents Weather Stations Pressure Air Temp Water Temp Dewpoint Dewpoint Depression Visibility Wind Speed Wind Dir Waves Ship Positions

Alessandro F

Last reported at 2015-Mar-26 07:33 UTC. Time now 2015-Mar-29 06:11 UTC.
Position N 40°45' E 028°57'.

Length 100 m; draft 5.3 m.

Type: Tanker. MMSI: 247046400.

Date/timePositionNaut miles runAvg speedWind from/ knotsBaromVisibWave heightAir tempDewpointWater temp
2015-Mar-26 07:33N 40°45' E 028°57'1313.6
2015-Mar-26 06:33N 40°45' E 029°15'10 0.3
2015-Mar-24 23:29N 40°44' E 029°28'1112.4
2015-Mar-24 22:34N 40°44' E 029°13'1513.7
2015-Mar-24 21:29N 40°44' E 028°53'29711.7
2015-Mar-23 20:14N 37°36' E 023°57'1013.8
2015-Mar-23 19:28N 37°39' E 023°45'1313.9
2015-Mar-23 18:33N 37°50' E 023°37'8 0.7
2015-Mar-23 07:33N 37°57' E 023°33'1010.3
2015-Mar-23 06:33N 37°49' E 023°40'  

Dump ship's entire track history